LOWSLOWI

Guest
Details From LOWS - Salzburg Maxglan
To LOWI - Innsbruck Kranebitten
Flight Number -
Tags generated
Created
Modified
Stats Distance 75 nm / 138 km
Max Altitude 10,600 ft / 3,231 m
Waypoints 3
Social Downloads 31
Likes 0
Share VATSIM

Download

Looking for another format? Having issues loading an existing format? Contact us
Advertisement - Login to hide

Notes

Basic altitude profile: - Ascent Rate: 1600ft/min - Ascent Speed: 150kts - Cruise Altitude: 12000ft - Cruise Speed: 150kts - Descent Rate: 1200ft/min - Descent Speed: 100kts

Route

LOWS LOMRO LOWI

ID Type Via Altitude Latitude Longitude Leg Dist Tot Dist Heading (true) Name
O LOWS APT - 0 ft / 0 m 47.79333˚ 13.00433˚ - 0 nm - Salzburg Maxglan
LOMRO FIX - 10,600 ft / 3,231 m 47.66667˚ 12.59694˚ 18 nm 18 nm 245° / 245° -
O LOWI APT - 0 ft / 0 m 47.26023˚ 11.34397˚ 56 nm 74 nm 245° / 244° Innsbruck Kranebitten

Altitude Profile

Advertisement - Login to hide

LOWS

Details ICAO LOWS (SZG)
Name Salzburg Maxglan
Region Austria
Timezone Europe/Vienna (UTC+2.0)
Stats Elevation 1,411 ft / 430 m (AMSL)
Location 47.793333° 13.004333°
Runways 1
Magnetic Variation 3.481° E

METAR

Not found

TAF

TAF LOWS 272315Z 2800/2824 15006KT CAVOK TX29/2813Z TN15/2804Z BECMG 2807/2809 35006KT 9999 FEW060 TEMPO 2812/2818 03008KT FEW050 FEW060CB SCT090 PROB30 TEMPO 2814/2818 15015KT TSRA FEW050CB SCT060 BKN080 BECMG 2818/2820 15006KT CAVOK

Decode

Departure Runways

ID Width Length Bearing (true) Bearing (mag) Surface Threshold Offset Overrun Length
16 148 ft / 45 m 9,024 ft / 2,751 m 157.08° 153.60° Concrete 656 ft / 200 m 0 ft / 0 m
34 148 ft / 45 m 9,024 ft / 2,751 m 337.09° 333.61° Concrete 787 ft / 240 m 0 ft / 0 m

LOWI

Details ICAO LOWI (INN)
Name Innsbruck Kranebitten
Region Austria
Timezone Europe/Vienna (UTC+2.0)
Stats Elevation 1,906 ft / 581 m (AMSL)
Location 47.260226° 11.343967°
Runways 1
Magnetic Variation 3.073° E

METAR

Not found

TAF

TAF LOWI 272315Z 2800/2824 27004KT CAVOK TX27/2813Z TN14/2804Z BECMG 2805/2807 27008KT BECMG 2809/2811 10010KT 9999 FEW070 SCT150 BKN300 TEMPO 2812/2818 12015G25KT SCT070 FEW070CB PROB30 TEMPO 2813/2818 -TSRA SCT070CB BKN070 BECMG 2819/2821 27005KT CAVOK

Decode

Destination Runways

ID Width Length Bearing (true) Bearing (mag) Surface Threshold Offset Overrun Length
08 148 ft / 45 m 6,545 ft / 1,995 m 81.02° 77.95° Asphalt 338 ft / 103 m 0 ft / 0 m
26 148 ft / 45 m 6,545 ft / 1,995 m 261.04° 257.97° Asphalt 0 ft / 0 m 0 ft / 0 m

Approach Navaids

Runway Type Ident Frequency Range Bearing (true) Bearing (mag) Slope Elevation
26 Localiser OEV 111.10 MHz 27 nm / 50 km 256.00° 252.93° - 1,906 ft / 581 m (AMSL)
26 Localiser OEJ 109.70 MHz 30 nm / 56 km 69.00° 65.93° - 1,906 ft / 581 m (AMSL)
26 Glidescope OEV 111.10 MHz 18 nm / 33 km 256.00° 252.93° 3.80° 1,911 ft / 582 m (AMSL)
26 DME OEJ 109.70 MHz 30 nm / 56 km - - - 1,906 ft / 581 m (AMSL)
26 DME OEV 111.10 MHz 27 nm / 50 km - - - 1,911 ft / 582 m (AMSL)

Popular Alternatives